< < Back
Terminal Aerodrome Forecast


Current Version              Previous Versions:   1  2  3  4  5  6  7  8  9  

Terminal Aerodrome Forecast

955
FTUS42 KGSP 230856 AAA
TAFCLT
TAF AMD
KCLT 230856Z 2309/2406 31004KT P6SM SKC
     FM240100 34003KT P6SM FEW250=



Latest METAR

176
SAUS70 KWBC 231700 RRD
MTRCLT
METAR KCLT 231652Z 01012G16KT 10SM CLR 18/03 A3007 RMK AO2 SLP180
T01830028


USA.gov is the U.S. government's official web portal to all federal, state and local government web resources and services.